sensor_id;sensor_type;location;lat;lon;timestamp;pressure;altitude;pressure_sealevel;temperature;humidity
85812;BME280;76886;52.146;20.718;2024-03-06T00:00:30;100880;;;5.4;84.6
85812;BME280;76886;52.146;20.718;2024-03-06T00:01:30;100880;;;5.4;85.2
85812;BME280;76886;52.146;20.718;2024-03-06T00:02:30;100880;;;5.1;86.3
85812;BME280;76886;52.146;20.718;2024-03-06T00:03:30;100890;;;4.9;87.4
85812;BME280;76886;52.146;20.718;2024-03-06T00:04:30;100880;;;4.7;88.7
85812;BME280;76886;52.146;20.718;2024-03-06T00:05:30;100880;;;4.7;88.8
85812;BME280;76886;52.146;20.718;2024-03-06T00:06:30;100880;;;5.0;88.1
85812;BME280;76886;52.146;20.718;2024-03-06T00:07:30;100880;;;5.1;87.4
85812;BME280;76886;52.146;20.718;2024-03-06T00:08:30;100880;;;5.0;87.8
85812;BME280;76886;52.146;20.718;2024-03-06T00:09:30;100880;;;5.5;86.4
85812;BME280;76886;52.146;20.718;2024-03-06T00:10:30;100880;;;5.5;85.4
85812;BME280;76886;52.146;20.718;2024-03-06T00:11:30;100880;;;5.2;86.4
85812;BME280;76886;52.146;20.718;2024-03-06T00:12:30;100880;;;5.3;86.5
85812;BME280;76886;52.146;20.718;2024-03-06T00:13:30;100890;;;5.3;86.2
85812;BME280;76886;52.146;20.718;2024-03-06T00:14:30;100890;;;5.6;85.7
85812;BME280;76886;52.146;20.718;2024-03-06T00:15:30;100890;;;5.8;84.3
85812;BME280;76886;52.146;20.718;2024-03-06T00:16:30;100890;;;5.6;84.5
85812;BME280;76886;52.146;20.718;2024-03-06T00:17:30;100900;;;5.7;84.5
85812;BME280;76886;52.146;20.718;2024-03-06T00:18:30;100900;;;5.9;83.9
85812;BME280;76886;52.146;20.718;2024-03-06T00:19:30;100900;;;5.9;83.6
85812;BME280;76886;52.146;20.718;2024-03-06T00:20:30;100900;;;5.7;84.0
85812;BME280;76886;52.146;20.718;2024-03-06T00:21:30;100900;;;5.9;83.6
85812;BME280;76886;52.146;20.718;2024-03-06T00:22:30;100900;;;5.9;83.2
85812;BME280;76886;52.146;20.718;2024-03-06T00:23:30;100890;;;5.8;83.7
85812;BME280;76886;52.146;20.718;2024-03-06T00:24:30;100900;;;5.4;85.4
85812;BME280;76886;52.146;20.718;2024-03-06T00:25:30;100900;;;5.2;86.3
85812;BME280;76886;52.146;20.718;2024-03-06T00:26:30;100900;;;5.4;86.4
85812;BME280;76886;52.146;20.718;2024-03-06T00:27:30;100900;;;5.6;85.2
85812;BME280;76886;52.146;20.718;2024-03-06T00:28:30;100900;;;6.0;83.7
85812;BME280;76886;52.146;20.718;2024-03-06T00:29:30;100900;;;5.9;83.4
85812;BME280;76886;52.146;20.718;2024-03-06T00:30:30;100900;;;6.1;82.6
85812;BME280;76886;52.146;20.718;2024-03-06T00:31:30;100900;;;6.3;81.8
85812;BME280;76886;52.146;20.718;2024-03-06T00:32:30;100900;;;6.3;81.7
85812;BME280;76886;52.146;20.718;2024-03-06T00:33:30;100900;;;6.0;82.9
85812;BME280;76886;52.146;20.718;2024-03-06T00:34:30;100900;;;6.2;82.2
85812;BME280;76886;52.146;20.718;2024-03-06T00:35:30;100900;;;6.4;81.6
85812;BME280;76886;52.146;20.718;2024-03-06T00:36:30;100900;;;6.3;82.0
85812;BME280;76886;52.146;20.718;2024-03-06T00:37:30;100900;;;6.2;82.4
85812;BME280;76886;52.146;20.718;2024-03-06T00:38:30;100910;;;6.2;82.0
85812;BME280;76886;52.146;20.718;2024-03-06T00:39:30;100900;;;6.4;81.6
85812;BME280;76886;52.146;20.718;2024-03-06T00:40:30;100910;;;6.7;80.1
85812;BME280;76886;52.146;20.718;2024-03-06T00:41:30;100900;;;6.8;79.6
85812;BME280;76886;52.146;20.718;2024-03-06T00:42:30;100900;;;6.6;79.6
85812;BME280;76886;52.146;20.718;2024-03-06T00:43:30;100900;;;6.8;79.6
85812;BME280;76886;52.146;20.718;2024-03-06T00:44:30;100900;;;6.8;79.4
85812;BME280;76886;52.146;20.718;2024-03-06T00:45:30;100900;;;7.1;78.4
85812;BME280;76886;52.146;20.718;2024-03-06T00:46:30;100900;;;7.1;78.2
85812;BME280;76886;52.146;20.718;2024-03-06T00:47:30;100900;;;7.0;78.5
85812;BME280;76886;52.146;20.718;2024-03-06T00:48:30;100900;;;6.9;78.5
85812;BME280;76886;52.146;20.718;2024-03-06T00:49:30;100900;;;6.6;79.9
85812;BME280;76886;52.146;20.718;2024-03-06T00:50:30;100900;;;6.8;79.5
85812;BME280;76886;52.146;20.718;2024-03-06T00:51:30;100900;;;7.0;78.7
85812;BME280;76886;52.146;20.718;2024-03-06T00:52:30;100900;;;7.2;77.7
85812;BME280;76886;52.146;20.718;2024-03-06T00:53:30;100900;;;7.3;77.0
85812;BME280;76886;52.146;20.718;2024-03-06T00:54:30;100900;;;7.4;76.8
85812;BME280;76886;52.146;20.718;2024-03-06T00:55:30;100900;;;7.4;76.5
85812;BME280;76886;52.146;20.718;2024-03-06T00:56:30;100900;;;7.6;75.9
85812;BME280;76886;52.146;20.718;2024-03-06T00:57:30;100900;;;7.6;75.8
85812;BME280;76886;52.146;20.718;2024-03-06T00:58:30;100900;;;7.7;75.3
85812;BME280;76886;52.146;20.718;2024-03-06T00:59:30;100900;;;7.5;75.9
85812;BME280;76886;52.146;20.718;2024-03-06T01:00:30;100900;;;7.6;75.6
85812;BME280;76886;52.146;20.718;2024-03-06T01:01:30;100900;;;7.7;75.2
85812;BME280;76886;52.146;20.718;2024-03-06T01:02:30;100900;;;7.6;75.4
85812;BME280;76886;52.146;20.718;2024-03-06T01:03:30;100910;;;7.4;76.2
85812;BME280;76886;52.146;20.718;2024-03-06T01:04:30;100900;;;7.3;76.7
85812;BME280;76886;52.146;20.718;2024-03-06T01:05:30;100910;;;7.3;76.9
85812;BME280;76886;52.146;20.718;2024-03-06T01:06:30;100900;;;7.3;76.7
85812;BME280;76886;52.146;20.718;2024-03-06T01:07:30;100910;;;7.5;76.1
85812;BME280;76886;52.146;20.718;2024-03-06T01:08:30;100900;;;7.6;75.7
85812;BME280;76886;52.146;20.718;2024-03-06T01:09:30;100910;;;7.2;77.1
85812;BME280;76886;52.146;20.718;2024-03-06T01:10:30;100900;;;7.2;77.3
85812;BME280;76886;52.146;20.718;2024-03-06T01:11:30;100910;;;7.1;77.6
85812;BME280;76886;52.146;20.718;2024-03-06T01:12:30;100910;;;7.3;76.9
85812;BME280;76886;52.146;20.718;2024-03-06T01:13:30;100910;;;7.5;76.1
85812;BME280;76886;52.146;20.718;2024-03-06T01:14:30;100910;;;7.7;75.3
85812;BME280;76886;52.146;20.718;2024-03-06T01:15:30;100910;;;7.5;76.0
85812;BME280;76886;52.146;20.718;2024-03-06T01:16:30;100910;;;7.0;77.8
85812;BME280;76886;52.146;20.718;2024-03-06T01:17:30;100910;;;7.0;78.3
85812;BME280;76886;52.146;20.718;2024-03-06T01:18:30;100910;;;7.0;78.0
85812;BME280;76886;52.146;20.718;2024-03-06T01:19:30;100910;;;7.2;77.6
85812;BME280;76886;52.146;20.718;2024-03-06T01:20:30;100910;;;7.3;77.3
85812;BME280;76886;52.146;20.718;2024-03-06T01:21:30;100910;;;7.3;77.4
85812;BME280;76886;52.146;20.718;2024-03-06T01:22:30;100900;;;7.5;76.6
85812;BME280;76886;52.146;20.718;2024-03-06T01:23:30;100910;;;7.6;76.0
85812;BME280;76886;52.146;20.718;2024-03-06T01:24:30;100910;;;7.4;76.7
85812;BME280;76886;52.146;20.718;2024-03-06T01:25:30;100910;;;7.3;77.2
85812;BME280;76886;52.146;20.718;2024-03-06T01:26:30;100910;;;7.3;77.3
85812;BME280;76886;52.146;20.718;2024-03-06T01:27:30;100910;;;7.3;77.1
85812;BME280;76886;52.146;20.718;2024-03-06T01:28:30;100910;;;7.4;76.7
85812;BME280;76886;52.146;20.718;2024-03-06T01:29:30;100910;;;7.5;76.3
85812;BME280;76886;52.146;20.718;2024-03-06T01:30:30;100910;;;7.5;76.2
85812;BME280;76886;52.146;20.718;2024-03-06T01:31:30;100910;;;7.4;76.6
85812;BME280;76886;52.146;20.718;2024-03-06T01:32:30;100910;;;7.6;76.1
85812;BME280;76886;52.146;20.718;2024-03-06T01:33:30;100910;;;7.5;76.4
85812;BME280;76886;52.146;20.718;2024-03-06T01:34:30;100910;;;7.4;76.8
85812;BME280;76886;52.146;20.718;2024-03-06T01:35:30;100910;;;6.9;78.7
85812;BME280;76886;52.146;20.718;2024-03-06T01:36:30;100910;;;6.7;79.9
85812;BME280;76886;52.146;20.718;2024-03-06T01:37:30;100910;;;6.8;79.9
85812;BME280;76886;52.146;20.718;2024-03-06T01:38:30;100910;;;6.7;79.9
85812;BME280;76886;52.146;20.718;2024-03-06T01:39:30;100910;;;6.9;79.3
85812;BME280;76886;52.146;20.718;2024-03-06T01:40:30;100910;;;7.2;78.3
85812;BME280;76886;52.146;20.718;2024-03-06T01:41:30;100910;;;7.0;78.7
85812;BME280;76886;52.146;20.718;2024-03-06T01:42:30;100910;;;6.8;79.2
85812;BME280;76886;52.146;20.718;2024-03-06T01:43:36;100910;;;6.5;80.7
85812;BME280;76886;52.146;20.718;2024-03-06T01:46:30;100910;;;6.6;81.0
85812;BME280;76886;52.146;20.718;2024-03-06T01:47:30;100920;;;6.9;79.7
85812;BME280;76886;52.146;20.718;2024-03-06T01:48:30;100920;;;7.2;78.5
85812;BME280;76886;52.146;20.718;2024-03-06T01:49:30;100920;;;7.4;77.6
85812;BME280;76886;52.146;20.718;2024-03-06T01:50:30;100920;;;7.6;76.5
85812;BME280;76886;52.146;20.718;2024-03-06T01:51:30;100920;;;7.6;75.9
85812;BME280;76886;52.146;20.718;2024-03-06T01:52:30;100920;;;7.8;75.5
85812;BME280;76886;52.146;20.718;2024-03-06T01:53:31;100920;;;7.9;75.0
85812;BME280;76886;52.146;20.718;2024-03-06T01:54:30;100920;;;7.9;74.7
85812;BME280;76886;52.146;20.718;2024-03-06T01:55:30;100920;;;7.9;74.7
85812;BME280;76886;52.146;20.718;2024-03-06T01:56:31;100920;;;8.0;74.8
85812;BME280;76886;52.146;20.718;2024-03-06T01:57:30;100920;;;8.0;74.7
85812;BME280;76886;52.146;20.718;2024-03-06T01:58:30;100910;;;8.0;74.5
85812;BME280;76886;52.146;20.718;2024-03-06T01:59:30;100920;;;8.1;74.2
85812;BME280;76886;52.146;20.718;2024-03-06T02:00:30;100920;;;8.1;74.1
85812;BME280;76886;52.146;20.718;2024-03-06T02:01:31;100920;;;8.1;73.8
85812;BME280;76886;52.146;20.718;2024-03-06T02:02:30;100920;;;8.0;74.1
85812;BME280;76886;52.146;20.718;2024-03-06T02:03:31;100920;;;8.0;74.4
85812;BME280;76886;52.146;20.718;2024-03-06T02:04:30;100920;;;7.9;74.9
85812;BME280;76886;52.146;20.718;2024-03-06T02:05:30;100920;;;8.0;74.6
85812;BME280;76886;52.146;20.718;2024-03-06T02:06:30;100920;;;7.7;75.6
85812;BME280;76886;52.146;20.718;2024-03-06T02:07:30;100920;;;7.8;75.2
85812;BME280;76886;52.146;20.718;2024-03-06T02:08:30;100920;;;7.7;75.6
85812;BME280;76886;52.146;20.718;2024-03-06T02:09:30;100920;;;7.7;76.0
85812;BME280;76886;52.146;20.718;2024-03-06T02:10:30;100930;;;7.8;75.3
85812;BME280;76886;52.146;20.718;2024-03-06T02:11:30;100930;;;7.5;76.4
85812;BME280;76886;52.146;20.718;2024-03-06T02:12:30;100930;;;6.9;78.8
85812;BME280;76886;52.146;20.718;2024-03-06T02:13:30;100930;;;6.4;81.0
85812;BME280;76886;52.146;20.718;2024-03-06T02:14:30;100920;;;6.4;81.7
85812;BME280;76886;52.146;20.718;2024-03-06T02:15:30;100930;;;6.5;81.5
85812;BME280;76886;52.146;20.718;2024-03-06T02:16:30;100930;;;6.2;82.7
85812;BME280;76886;52.146;20.718;2024-03-06T02:17:30;100940;;;6.3;83.0
85812;BME280;76886;52.146;20.718;2024-03-06T02:18:30;100940;;;6.7;81.2
85812;BME280;76886;52.146;20.718;2024-03-06T02:19:37;100930;;;6.9;80.0
85812;BME280;76886;52.146;20.718;2024-03-06T02:20:30;100930;;;6.8;80.0
85812;BME280;76886;52.146;20.718;2024-03-06T02:21:30;100940;;;6.8;80.4
85812;BME280;76886;52.146;20.718;2024-03-06T02:22:30;100940;;;7.0;79.6
85812;BME280;76886;52.146;20.718;2024-03-06T02:23:30;100930;;;7.2;78.5
85812;BME280;76886;52.146;20.718;2024-03-06T02:24:30;100930;;;7.3;77.9
85812;BME280;76886;52.146;20.718;2024-03-06T02:25:30;100930;;;6.9;79.1
85812;BME280;76886;52.146;20.718;2024-03-06T02:26:30;100930;;;6.9;79.9
85812;BME280;76886;52.146;20.718;2024-03-06T02:27:30;100930;;;7.1;79.2
85812;BME280;76886;52.146;20.718;2024-03-06T02:28:30;100930;;;7.1;78.7
85812;BME280;76886;52.146;20.718;2024-03-06T02:29:30;100930;;;7.2;78.6
85812;BME280;76886;52.146;20.718;2024-03-06T02:30:30;100930;;;7.4;77.6
85812;BME280;76886;52.146;20.718;2024-03-06T02:31:30;100930;;;7.6;76.9
85812;BME280;76886;52.146;20.718;2024-03-06T02:32:30;100930;;;7.4;77.6
85812;BME280;76886;52.146;20.718;2024-03-06T02:33:31;100920;;;7.5;77.2
85812;BME280;76886;52.146;20.718;2024-03-06T02:34:30;100920;;;7.4;77.4
85812;BME280;76886;52.146;20.718;2024-03-06T02:35:30;100930;;;7.6;77.1
85812;BME280;76886;52.146;20.718;2024-03-06T02:36:30;100920;;;7.6;76.5
85812;BME280;76886;52.146;20.718;2024-03-06T02:37:30;100920;;;7.8;75.9
85812;BME280;76886;52.146;20.718;2024-03-06T02:38:30;100920;;;7.9;75.5
85812;BME280;76886;52.146;20.718;2024-03-06T02:39:30;100920;;;7.9;75.2
85812;BME280;76886;52.146;20.718;2024-03-06T02:40:30;100930;;;8.0;75.0
85812;BME280;76886;52.146;20.718;2024-03-06T02:41:30;100920;;;7.5;76.9
85812;BME280;76886;52.146;20.718;2024-03-06T02:42:30;100920;;;6.9;79.1
85812;BME280;76886;52.146;20.718;2024-03-06T02:43:30;100920;;;6.6;80.9
85812;BME280;76886;52.146;20.718;2024-03-06T02:44:30;100920;;;6.2;82.4
85812;BME280;76886;52.146;20.718;2024-03-06T02:45:30;100930;;;6.3;82.6
85812;BME280;76886;52.146;20.718;2024-03-06T02:46:30;100920;;;6.4;82.0
85812;BME280;76886;52.146;20.718;2024-03-06T02:47:30;100920;;;6.3;82.5
85812;BME280;76886;52.146;20.718;2024-03-06T02:48:30;100930;;;6.5;82.1
85812;BME280;76886;52.146;20.718;2024-03-06T02:49:30;100930;;;6.7;81.5
85812;BME280;76886;52.146;20.718;2024-03-06T02:50:30;100930;;;6.6;81.5
85812;BME280;76886;52.146;20.718;2024-03-06T02:51:30;100930;;;6.6;81.6
85812;BME280;76886;52.146;20.718;2024-03-06T02:52:30;100930;;;6.7;81.5
85812;BME280;76886;52.146;20.718;2024-03-06T02:53:30;100930;;;7.0;80.1
85812;BME280;76886;52.146;20.718;2024-03-06T02:54:30;100930;;;7.3;78.8
85812;BME280;76886;52.146;20.718;2024-03-06T02:55:30;100930;;;7.5;77.7
85812;BME280;76886;52.146;20.718;2024-03-06T02:56:30;100930;;;7.6;76.9
85812;BME280;76886;52.146;20.718;2024-03-06T02:57:30;100920;;;7.8;76.3
85812;BME280;76886;52.146;20.718;2024-03-06T02:58:30;100930;;;7.9;75.7
85812;BME280;76886;52.146;20.718;2024-03-06T02:59:30;100920;;;7.9;75.3
85812;BME280;76886;52.146;20.718;2024-03-06T03:00:30;100930;;;8.0;74.8
85812;BME280;76886;52.146;20.718;2024-03-06T03:01:30;100930;;;8.1;74.7
85812;BME280;76886;52.146;20.718;2024-03-06T03:02:30;100930;;;8.1;74.3
85812;BME280;76886;52.146;20.718;2024-03-06T03:03:30;100930;;;8.1;74.5
85812;BME280;76886;52.146;20.718;2024-03-06T03:04:30;100930;;;8.2;74.0
85812;BME280;76886;52.146;20.718;2024-03-06T03:05:30;100940;;;8.3;73.7
85812;BME280;76886;52.146;20.718;2024-03-06T03:06:30;100940;;;8.3;73.4
85812;BME280;76886;52.146;20.718;2024-03-06T03:07:30;100940;;;8.4;73.6
85812;BME280;76886;52.146;20.718;2024-03-06T03:08:30;100940;;;8.3;73.9
85812;BME280;76886;52.146;20.718;2024-03-06T03:09:30;100930;;;8.2;74.2
85812;BME280;76886;52.146;20.718;2024-03-06T03:10:30;100940;;;8.3;74.1
85812;BME280;76886;52.146;20.718;2024-03-06T03:11:30;100940;;;8.3;74.0
85812;BME280;76886;52.146;20.718;2024-03-06T03:12:30;100940;;;8.2;73.9
85812;BME280;76886;52.146;20.718;2024-03-06T03:13:30;100940;;;8.2;73.9
85812;BME280;76886;52.146;20.718;2024-03-06T03:14:30;100940;;;8.3;74.0
85812;BME280;76886;52.146;20.718;2024-03-06T03:15:30;100940;;;8.3;73.7
85812;BME280;76886;52.146;20.718;2024-03-06T03:16:30;100930;;;8.1;74.4
85812;BME280;76886;52.146;20.718;2024-03-06T03:17:30;100930;;;8.1;74.7
85812;BME280;76886;52.146;20.718;2024-03-06T03:18:30;100930;;;8.0;75.0
85812;BME280;76886;52.146;20.718;2024-03-06T03:19:30;100930;;;7.9;75.7
85812;BME280;76886;52.146;20.718;2024-03-06T03:20:30;100940;;;8.0;75.3
85812;BME280;76886;52.146;20.718;2024-03-06T03:21:30;100940;;;8.0;75.0
85812;BME280;76886;52.146;20.718;2024-03-06T03:22:30;100940;;;8.1;75.0
85812;BME280;76886;52.146;20.718;2024-03-06T03:23:30;100940;;;8.2;74.3
85812;BME280;76886;52.146;20.718;2024-03-06T03:24:30;100940;;;8.2;74.1
85812;BME280;76886;52.146;20.718;2024-03-06T03:25:30;100930;;;8.3;73.7
85812;BME280;76886;52.146;20.718;2024-03-06T03:26:30;100940;;;8.2;74.3
85812;BME280;76886;52.146;20.718;2024-03-06T03:27:30;100940;;;8.2;74.5
85812;BME280;76886;52.146;20.718;2024-03-06T03:28:30;100940;;;8.3;74.2
85812;BME280;76886;52.146;20.718;2024-03-06T03:29:30;100940;;;8.3;74.0
85812;BME280;76886;52.146;20.718;2024-03-06T03:30:30;100940;;;8.4;73.6
85812;BME280;76886;52.146;20.718;2024-03-06T03:31:30;100940;;;8.4;73.6
85812;BME280;76886;52.146;20.718;2024-03-06T03:32:30;100940;;;8.4;73.5
85812;BME280;76886;52.146;20.718;2024-03-06T03:33:30;100940;;;8.4;73.5
85812;BME280;76886;52.146;20.718;2024-03-06T03:34:30;100940;;;8.4;73.3
85812;BME280;76886;52.146;20.718;2024-03-06T03:35:30;100940;;;8.4;73.1
85812;BME280;76886;52.146;20.718;2024-03-06T03:36:30;100940;;;8.5;72.9
85812;BME280;76886;52.146;20.718;2024-03-06T03:37:30;100940;;;8.5;72.8
85812;BME280;76886;52.146;20.718;2024-03-06T03:38:30;100940;;;8.5;72.9
85812;BME280;76886;52.146;20.718;2024-03-06T03:39:30;100940;;;8.5;72.7
85812;BME280;76886;52.146;20.718;2024-03-06T03:40:30;100940;;;8.5;72.5
85812;BME280;76886;52.146;20.718;2024-03-06T03:41:30;100940;;;8.5;72.3
85812;BME280;76886;52.146;20.718;2024-03-06T03:42:30;100940;;;8.5;72.4
85812;BME280;76886;52.146;20.718;2024-03-06T03:43:30;100950;;;8.5;72.2
85812;BME280;76886;52.146;20.718;2024-03-06T03:44:30;100940;;;8.6;72.2
85812;BME280;76886;52.146;20.718;2024-03-06T03:45:30;100940;;;8.6;71.9
85812;BME280;76886;52.146;20.718;2024-03-06T03:46:30;100940;;;8.6;71.8
85812;BME280;76886;52.146;20.718;2024-03-06T03:47:30;100940;;;8.6;71.8
85812;BME280;76886;52.146;20.718;2024-03-06T03:48:30;100940;;;8.6;71.6
85812;BME280;76886;52.146;20.718;2024-03-06T03:49:30;100940;;;8.7;71.8
85812;BME280;76886;52.146;20.718;2024-03-06T03:50:30;100940;;;8.7;71.7
85812;BME280;76886;52.146;20.718;2024-03-06T03:51:30;100940;;;8.6;71.9
85812;BME280;76886;52.146;20.718;2024-03-06T03:52:30;100950;;;8.6;71.8
85812;BME280;76886;52.146;20.718;2024-03-06T03:53:30;100950;;;8.6;71.7
85812;BME280;76886;52.146;20.718;2024-03-06T03:54:30;100950;;;8.7;71.8
85812;BME280;76886;52.146;20.718;2024-03-06T03:55:30;100940;;;8.7;71.8
85812;BME280;76886;52.146;20.718;2024-03-06T03:56:30;100940;;;8.7;71.6
85812;BME280;76886;52.146;20.718;2024-03-06T03:57:30;100950;;;8.7;71.5
85812;BME280;76886;52.146;20.718;2024-03-06T03:58:30;100950;;;8.7;71.4
85812;BME280;76886;52.146;20.718;2024-03-06T03:59:30;100950;;;8.7;71.4
85812;BME280;76886;52.146;20.718;2024-03-06T04:00:30;100950;;;8.7;71.3
85812;BME280;76886;52.146;20.718;2024-03-06T04:01:30;100950;;;8.7;71.3
85812;BME280;76886;52.146;20.718;2024-03-06T04:02:30;100950;;;8.7;71.3
85812;BME280;76886;52.146;20.718;2024-03-06T04:03:30;100950;;;8.7;71.7
85812;BME280;76886;52.146;20.718;2024-03-06T04:04:30;100950;;;8.7;72.1
85812;BME280;76886;52.146;20.718;2024-03-06T04:05:30;100950;;;8.7;72.0
85812;BME280;76886;52.146;20.718;2024-03-06T04:06:30;100950;;;8.7;71.9
85812;BME280;76886;52.146;20.718;2024-03-06T04:07:30;100950;;;8.6;71.8
85812;BME280;76886;52.146;20.718;2024-03-06T04:08:30;100950;;;8.6;72.2
85812;BME280;76886;52.146;20.718;2024-03-06T04:09:31;100950;;;8.4;73.0
85812;BME280;76886;52.146;20.718;2024-03-06T04:10:30;100950;;;8.2;73.8
85812;BME280;76886;52.146;20.718;2024-03-06T04:11:30;100950;;;8.2;73.7
85812;BME280;76886;52.146;20.718;2024-03-06T04:12:30;100950;;;8.2;73.6
85812;BME280;76886;52.146;20.718;2024-03-06T04:13:30;100950;;;8.2;74.0
85812;BME280;76886;52.146;20.718;2024-03-06T04:14:30;100950;;;8.2;74.0
85812;BME280;76886;52.146;20.718;2024-03-06T04:15:30;100950;;;8.2;74.4
85812;BME280;76886;52.146;20.718;2024-03-06T04:16:30;100950;;;7.9;75.4
85812;BME280;76886;52.146;20.718;2024-03-06T04:17:30;100950;;;7.9;76.0
85812;BME280;76886;52.146;20.718;2024-03-06T04:18:30;100950;;;7.6;76.9
85812;BME280;76886;52.146;20.718;2024-03-06T04:19:30;100960;;;7.6;77.5
85812;BME280;76886;52.146;20.718;2024-03-06T04:20:30;100950;;;7.4;78.0
85812;BME280;76886;52.146;20.718;2024-03-06T04:21:30;100960;;;7.6;77.6
85812;BME280;76886;52.146;20.718;2024-03-06T04:22:30;100960;;;7.7;76.7
85812;BME280;76886;52.146;20.718;2024-03-06T04:23:30;100960;;;7.4;78.4
85812;BME280;76886;52.146;20.718;2024-03-06T04:24:30;100960;;;7.2;79.2
85812;BME280;76886;52.146;20.718;2024-03-06T04:25:30;100960;;;6.9;80.6
85812;BME280;76886;52.146;20.718;2024-03-06T04:26:30;100960;;;6.5;82.1
85812;BME280;76886;52.146;20.718;2024-03-06T04:27:30;100960;;;6.5;82.6
85812;BME280;76886;52.146;20.718;2024-03-06T04:28:30;100960;;;6.6;82.8
85812;BME280;76886;52.146;20.718;2024-03-06T04:29:30;100960;;;6.7;82.5
85812;BME280;76886;52.146;20.718;2024-03-06T04:30:30;100960;;;6.4;83.3
85812;BME280;76886;52.146;20.718;2024-03-06T04:31:30;100970;;;6.2;84.6
85812;BME280;76886;52.146;20.718;2024-03-06T04:32:30;100960;;;6.0;85.1
85812;BME280;76886;52.146;20.718;2024-03-06T04:33:30;100960;;;6.0;85.5
85812;BME280;76886;52.146;20.718;2024-03-06T04:34:30;100970;;;5.9;86.0
85812;BME280;76886;52.146;20.718;2024-03-06T04:35:30;100960;;;6.0;85.9
85812;BME280;76886;52.146;20.718;2024-03-06T04:36:30;100960;;;5.9;86.3
85812;BME280;76886;52.146;20.718;2024-03-06T04:37:30;100960;;;5.7;86.9
85812;BME280;76886;52.146;20.718;2024-03-06T04:38:30;100960;;;5.7;87.1
85812;BME280;76886;52.146;20.718;2024-03-06T04:39:30;100960;;;5.7;87.5
85812;BME280;76886;52.146;20.718;2024-03-06T04:40:30;100960;;;5.7;87.1
85812;BME280;76886;52.146;20.718;2024-03-06T04:41:30;100960;;;5.7;87.4
85812;BME280;76886;52.146;20.718;2024-03-06T04:42:30;100970;;;5.7;87.4
85812;BME280;76886;52.146;20.718;2024-03-06T04:43:30;100960;;;5.6;87.5
85812;BME280;76886;52.146;20.718;2024-03-06T04:44:32;100960;;;5.6;87.8
85812;BME280;76886;52.146;20.718;2024-03-06T04:45:30;100960;;;5.5;88.1
85812;BME280;76886;52.146;20.718;2024-03-06T04:46:30;100960;;;5.7;88.0
85812;BME280;76886;52.146;20.718;2024-03-06T04:47:30;100960;;;5.6;88.2
85812;BME280;76886;52.146;20.718;2024-03-06T04:48:30;100960;;;5.7;87.2
85812;BME280;76886;52.146;20.718;2024-03-06T04:49:33;100960;;;5.8;87.4
85812;BME280;76886;52.146;20.718;2024-03-06T04:50:30;100960;;;5.9;86.8
85812;BME280;76886;52.146;20.718;2024-03-06T04:51:30;100960;;;6.0;86.4
85812;BME280;76886;52.146;20.718;2024-03-06T04:52:30;100960;;;5.9;86.5
85812;BME280;76886;52.146;20.718;2024-03-06T04:53:30;100960;;;6.1;85.9
85812;BME280;76886;52.146;20.718;2024-03-06T04:54:30;100970;;;6.0;85.8
85812;BME280;76886;52.146;20.718;2024-03-06T04:55:30;100960;;;5.9;86.5
85812;BME280;76886;52.146;20.718;2024-03-06T04:56:30;100970;;;5.9;86.5
85812;BME280;76886;52.146;20.718;2024-03-06T04:57:30;100970;;;5.9;86.4
85812;BME280;76886;52.146;20.718;2024-03-06T04:58:30;100970;;;5.7;86.6
85812;BME280;76886;52.146;20.718;2024-03-06T04:59:30;100970;;;5.7;86.7
85812;BME280;76886;52.146;20.718;2024-03-06T05:00:30;100970;;;5.6;87.4
85812;BME280;76886;52.146;20.718;2024-03-06T05:01:30;100970;;;5.6;87.6
85812;BME280;76886;52.146;20.718;2024-03-06T05:02:30;100970;;;5.5;87.7
85812;BME280;76886;52.146;20.718;2024-03-06T05:03:30;100970;;;5.6;87.8
85812;BME280;76886;52.146;20.718;2024-03-06T05:04:30;100980;;;5.7;87.1
85812;BME280;76886;52.146;20.718;2024-03-06T05:05:30;100970;;;5.6;87.1
85812;BME280;76886;52.146;20.718;2024-03-06T05:06:30;100980;;;5.5;87.1
85812;BME280;76886;52.146;20.718;2024-03-06T05:07:30;100970;;;5.6;87.3
85812;BME280;76886;52.146;20.718;2024-03-06T05:08:30;100980;;;5.6;87.4
85812;BME280;76886;52.146;20.718;2024-03-06T05:09:30;100980;;;5.6;87.0
85812;BME280;76886;52.146;20.718;2024-03-06T05:10:30;100980;;;5.6;87.1
85812;BME280;76886;52.146;20.718;2024-03-06T05:11:30;100980;;;5.7;86.6
85812;BME280;76886;52.146;20.718;2024-03-06T05:12:30;100980;;;5.7;86.8
85812;BME280;76886;52.146;20.718;2024-03-06T05:13:30;100980;;;5.7;86.6
85812;BME280;76886;52.146;20.718;2024-03-06T05:14:30;100980;;;5.6;86.3
85812;BME280;76886;52.146;20.718;2024-03-06T05:15:30;100990;;;5.6;86.8
85812;BME280;76886;52.146;20.718;2024-03-06T05:16:30;100990;;;5.7;86.5
85812;BME280;76886;52.146;20.718;2024-03-06T05:17:30;100980;;;5.6;86.1
85812;BME280;76886;52.146;20.718;2024-03-06T05:18:30;100990;;;5.7;86.3
85812;BME280;76886;52.146;20.718;2024-03-06T05:19:30;100990;;;5.7;85.8
85812;BME280;76886;52.146;20.718;2024-03-06T05:20:30;100990;;;5.8;85.2
85812;BME280;76886;52.146;20.718;2024-03-06T05:21:30;100990;;;5.7;86.0
85812;BME280;76886;52.146;20.718;2024-03-06T05:22:30;100990;;;5.7;86.2
85812;BME280;76886;52.146;20.718;2024-03-06T05:23:30;100990;;;6.0;85.2
85812;BME280;76886;52.146;20.718;2024-03-06T05:24:30;101000;;;6.0;84.8
85812;BME280;76886;52.146;20.718;2024-03-06T05:25:30;101000;;;5.9;85.1
85812;BME280;76886;52.146;20.718;2024-03-06T05:26:30;101000;;;5.9;84.6
85812;BME280;76886;52.146;20.718;2024-03-06T05:27:30;101000;;;5.7;85.4
85812;BME280;76886;52.146;20.718;2024-03-06T05:28:30;101000;;;5.6;85.5
85812;BME280;76886;52.146;20.718;2024-03-06T05:29:30;101010;;;5.6;86.2
85812;BME280;76886;52.146;20.718;2024-03-06T05:30:30;101010;;;5.5;86.0
85812;BME280;76886;52.146;20.718;2024-03-06T05:31:30;101010;;;5.6;85.9
85812;BME280;76886;52.146;20.718;2024-03-06T05:32:30;101010;;;5.6;85.9
85812;BME280;76886;52.146;20.718;2024-03-06T05:33:30;101010;;;5.6;86.3
85812;BME280;76886;52.146;20.718;2024-03-06T05:34:30;101010;;;5.6;85.8
85812;BME280;76886;52.146;20.718;2024-03-06T05:35:30;101010;;;5.6;85.9
85812;BME280;76886;52.146;20.718;2024-03-06T05:36:30;101000;;;5.5;86.1
85812;BME280;76886;52.146;20.718;2024-03-06T05:37:30;101010;;;5.5;86.2